createdAt,value
2019-01-13T00:00:11.724Z,7.71
2019-01-13T00:01:09.633Z,7.69
2019-01-13T00:02:09.646Z,7.66
2019-01-13T00:03:09.611Z,7.68
2019-01-13T00:04:09.599Z,7.69
2019-01-13T00:05:09.587Z,7.69
2019-01-13T00:06:09.578Z,7.64
2019-01-13T00:07:09.582Z,7.61
2019-01-13T00:08:09.556Z,7.61
2019-01-13T00:09:09.544Z,7.69
2019-01-13T00:10:09.532Z,7.74
2019-01-13T00:11:09.521Z,7.60
2019-01-13T00:12:09.527Z,7.61
2019-01-13T00:13:09.500Z,7.64
2019-01-13T00:14:09.557Z,7.52
2019-01-13T00:15:09.478Z,7.61
2019-01-13T00:16:09.467Z,7.61
2019-01-13T00:17:09.473Z,7.62
2019-01-13T00:18:09.445Z,7.54
2019-01-13T00:19:09.436Z,7.68
2019-01-13T00:20:09.426Z,7.58
2019-01-13T00:21:09.414Z,7.61
2019-01-13T00:22:09.420Z,7.55
2019-01-13T00:23:09.390Z,7.62
2019-01-13T00:24:09.384Z,7.58
2019-01-13T00:25:09.368Z,7.61
2019-01-13T00:26:09.368Z,7.60
2019-01-13T00:27:09.364Z,7.60
2019-01-13T00:28:09.335Z,7.69
2019-01-13T00:29:09.324Z,7.60
2019-01-13T00:30:09.313Z,7.60
2019-01-13T00:31:09.302Z,7.58
2019-01-13T00:32:09.291Z,7.57
2019-01-13T00:33:09.300Z,7.64
2019-01-13T00:34:09.270Z,7.64
2019-01-13T00:35:09.258Z,7.64
2019-01-13T00:36:09.250Z,7.57
2019-01-13T00:37:09.237Z,7.61
2019-01-13T00:38:09.245Z,7.61
2019-01-13T00:39:09.215Z,7.66
2019-01-13T00:40:09.211Z,7.64
2019-01-13T00:41:09.196Z,7.69
2019-01-13T00:42:09.182Z,7.60
2019-01-13T00:43:09.187Z,7.73
2019-01-13T00:44:09.160Z,7.60
2019-01-13T00:45:09.148Z,7.68
2019-01-13T00:46:09.137Z,7.73
2019-01-13T00:47:09.126Z,7.69
2019-01-13T00:48:09.131Z,7.74
2019-01-13T00:49:09.104Z,7.71
2019-01-13T00:50:09.094Z,7.77
2019-01-13T00:51:09.083Z,7.73
2019-01-13T00:52:09.071Z,7.64
2019-01-13T00:53:09.091Z,7.76
2019-01-13T00:54:09.057Z,7.71
2019-01-13T00:55:09.043Z,7.76
2019-01-13T00:56:09.028Z,7.69
2019-01-13T00:57:09.018Z,7.84
2019-01-13T00:58:09.006Z,7.83
2019-01-13T00:59:09.011Z,7.88
2019-01-13T01:00:08.984Z,7.88
2019-01-13T01:01:08.975Z,7.88
2019-01-13T01:02:08.970Z,7.77
2019-01-13T01:03:08.955Z,7.87
2019-01-13T01:04:08.956Z,7.92
2019-01-13T01:05:08.933Z,7.88
2019-01-13T01:06:08.921Z,7.88
2019-01-13T01:07:08.907Z,7.84
2019-01-13T01:08:08.895Z,7.87
2019-01-13T01:09:08.902Z,7.87
2019-01-13T01:10:08.874Z,7.91
2019-01-13T01:11:08.863Z,7.92
2019-01-13T01:12:08.860Z,7.84
2019-01-13T01:13:08.849Z,7.87
2019-01-13T01:14:08.860Z,7.86
2019-01-13T01:15:08.819Z,7.83
2019-01-13T01:16:08.808Z,7.88
2019-01-13T01:17:08.856Z,7.88
2019-01-13T01:18:08.787Z,7.91
2019-01-13T01:19:08.774Z,7.78
2019-01-13T01:20:08.824Z,7.87
2019-01-13T01:21:08.755Z,7.87
2019-01-13T01:22:08.741Z,7.92
2019-01-13T01:23:08.734Z,7.80
2019-01-13T01:24:08.720Z,7.84
2019-01-13T01:25:08.732Z,7.81
2019-01-13T01:26:08.698Z,7.87
2019-01-13T01:27:08.687Z,7.84
2019-01-13T01:28:08.768Z,7.87
2019-01-13T01:29:08.666Z,7.84
2019-01-13T01:30:08.673Z,7.76
2019-01-13T01:31:08.647Z,7.84
2019-01-13T01:32:08.637Z,7.77
2019-01-13T01:33:08.624Z,7.69
2019-01-13T01:34:08.611Z,7.71
2019-01-13T01:35:08.615Z,7.74
2019-01-13T01:36:08.594Z,7.84
2019-01-13T01:37:08.580Z,7.88
2019-01-13T01:38:08.568Z,7.84
2019-01-13T01:39:08.558Z,7.76
2019-01-13T01:40:08.560Z,7.81
2019-01-13T01:41:08.534Z,7.91
2019-01-13T01:42:08.526Z,7.92
2019-01-13T01:43:08.513Z,7.91
2019-01-13T01:44:08.499Z,7.83
2019-01-13T01:45:08.642Z,7.80
2019-01-13T01:46:08.479Z,7.87
2019-01-13T01:47:08.470Z,7.77
2019-01-13T01:48:08.464Z,7.84
2019-01-13T01:49:08.445Z,7.78
2019-01-13T01:50:08.434Z,7.83
2019-01-13T01:51:08.442Z,7.87
2019-01-13T01:52:08.414Z,7.84
2019-01-13T01:53:08.404Z,7.91
2019-01-13T01:54:08.394Z,7.94
2019-01-13T01:55:08.379Z,7.88
2019-01-13T01:56:08.391Z,7.84
2019-01-13T01:57:08.360Z,7.95
2019-01-13T01:58:08.347Z,7.94
2019-01-13T01:59:08.336Z,7.95
2019-01-13T02:00:08.329Z,7.80
2019-01-13T02:01:08.368Z,7.80
2019-01-13T02:02:08.304Z,7.87
2019-01-13T02:03:08.309Z,7.86
2019-01-13T02:04:08.338Z,7.81
2019-01-13T02:05:08.278Z,7.87
2019-01-13T02:06:08.278Z,7.80
2019-01-13T02:07:08.325Z,7.81
2019-01-13T02:08:08.237Z,7.80
2019-01-13T02:09:08.225Z,7.81
2019-01-13T02:10:08.223Z,7.91
2019-01-13T02:11:08.344Z,7.91
2019-01-13T02:12:08.192Z,7.88
2019-01-13T02:13:08.182Z,7.84
2019-01-13T02:14:08.172Z,7.88
2019-01-13T02:15:08.163Z,7.81
2019-01-13T02:16:08.149Z,7.87
2019-01-13T02:17:08.159Z,7.88
2019-01-13T02:18:08.128Z,7.80
2019-01-13T02:19:08.116Z,7.92
2019-01-13T02:20:08.107Z,7.88
2019-01-13T02:21:08.094Z,7.88
2019-01-13T02:22:08.100Z,7.88
2019-01-13T02:23:08.071Z,7.78
2019-01-13T02:24:08.061Z,7.81
2019-01-13T02:25:08.055Z,7.88
2019-01-13T02:26:08.041Z,7.84
2019-01-13T02:27:08.051Z,7.87
2019-01-13T02:28:08.016Z,7.77
2019-01-13T02:29:08.007Z,7.86
2019-01-13T02:30:08.010Z,7.87
2019-01-13T02:31:07.985Z,7.83
2019-01-13T02:32:08.018Z,7.91
2019-01-13T02:33:07.963Z,7.84
2019-01-13T02:34:07.952Z,7.80
2019-01-13T02:35:07.942Z,7.91
2019-01-13T02:36:07.935Z,7.94
2019-01-13T02:37:07.935Z,7.94
2019-01-13T02:38:07.911Z,7.86
2019-01-13T02:39:07.894Z,7.94
2019-01-13T02:40:07.886Z,7.77
2019-01-13T02:41:07.875Z,7.95
2019-01-13T02:42:07.880Z,7.84
2019-01-13T02:43:07.851Z,7.84
2019-01-13T02:44:07.844Z,7.91
2019-01-13T02:45:07.830Z,7.80
2019-01-13T02:46:07.828Z,7.88
2019-01-13T02:47:07.827Z,7.92
2019-01-13T02:48:07.796Z,7.76
2019-01-13T02:49:07.787Z,7.92
2019-01-13T02:50:07.776Z,7.87
2019-01-13T02:51:07.762Z,7.87
2019-01-13T02:52:07.811Z,7.80
2019-01-13T02:53:07.745Z,7.98
2019-01-13T02:54:07.733Z,7.80
2019-01-13T02:55:07.727Z,7.87
2019-01-13T02:56:07.708Z,7.87
2019-01-13T02:57:07.700Z,7.87
2019-01-13T02:58:07.710Z,7.73
2019-01-13T02:59:07.676Z,7.83
2019-01-13T03:00:07.666Z,7.88
2019-01-13T03:01:07.658Z,7.81
2019-01-13T03:02:07.644Z,7.86
2019-01-13T03:03:07.655Z,7.81
2019-01-13T03:04:07.623Z,7.78
2019-01-13T03:05:07.609Z,7.88
2019-01-13T03:06:07.601Z,7.92
2019-01-13T03:07:07.597Z,7.81
2019-01-13T03:08:07.597Z,7.83
2019-01-13T03:09:07.565Z,7.91
2019-01-13T03:10:07.555Z,7.83
2019-01-13T03:11:07.547Z,7.84
2019-01-13T03:12:07.619Z,7.88
2019-01-13T03:13:07.647Z,7.94
2019-01-13T03:14:07.512Z,7.98
2019-01-13T03:15:07.501Z,7.88
2019-01-13T03:16:07.492Z,7.81
2019-01-13T03:17:07.478Z,7.91
2019-01-13T03:18:07.471Z,7.84
2019-01-13T03:19:07.474Z,7.84
2019-01-13T03:20:07.455Z,7.78
2019-01-13T03:21:07.435Z,7.81
2019-01-13T03:22:07.435Z,7.80
2019-01-13T03:23:07.413Z,7.74
2019-01-13T03:24:07.423Z,7.68
2019-01-13T03:25:07.392Z,7.78
2019-01-13T03:26:07.379Z,7.73
2019-01-13T03:27:07.370Z,7.71
2019-01-13T03:28:07.357Z,7.88
2019-01-13T03:29:07.365Z,7.76
2019-01-13T03:30:07.336Z,7.74
2019-01-13T03:31:12.216Z,7.73
2019-01-13T03:32:07.318Z,7.69
2019-01-13T03:33:07.302Z,7.76
2019-01-13T03:34:07.309Z,7.73
2019-01-13T03:35:07.281Z,7.87
2019-01-13T03:36:07.301Z,7.83
2019-01-13T03:37:07.257Z,7.91
2019-01-13T03:38:07.250Z,7.80
2019-01-13T03:39:07.255Z,7.84
2019-01-13T03:40:07.227Z,7.74
2019-01-13T03:41:07.213Z,7.71
2019-01-13T03:42:07.204Z,7.71
2019-01-13T03:43:07.214Z,7.73
2019-01-13T03:44:07.207Z,7.74
2019-01-13T03:45:07.177Z,7.74
2019-01-13T03:46:07.164Z,7.74
2019-01-13T03:47:07.149Z,7.64
2019-01-13T03:48:07.138Z,7.66
2019-01-13T03:49:07.125Z,7.74
2019-01-13T03:50:07.132Z,7.74
2019-01-13T03:51:07.104Z,7.77
2019-01-13T03:52:07.096Z,7.73
2019-01-13T03:53:07.081Z,7.68
2019-01-13T03:54:07.070Z,7.73
2019-01-13T03:55:07.078Z,7.74
2019-01-13T03:56:07.052Z,7.69
2019-01-13T03:57:07.036Z,7.69
2019-01-13T03:58:07.026Z,7.71
2019-01-13T03:59:07.018Z,7.62
2019-01-13T04:00:07.021Z,7.71
2019-01-13T04:01:06.996Z,7.66
2019-01-13T04:02:06.983Z,7.66
2019-01-13T04:03:06.991Z,7.68
2019-01-13T04:04:06.963Z,7.73
2019-01-13T04:05:06.964Z,7.76
2019-01-13T04:06:06.963Z,7.69
2019-01-13T04:07:06.927Z,7.64
2019-01-13T04:08:06.922Z,7.66
2019-01-13T04:09:06.911Z,7.68
2019-01-13T04:10:06.915Z,7.71
2019-01-13T04:11:06.883Z,7.71
2019-01-13T04:12:06.872Z,7.69
2019-01-13T04:13:06.863Z,7.68
2019-01-13T04:14:06.852Z,7.69
2019-01-13T04:15:06.874Z,7.61
2019-01-13T04:16:06.827Z,7.73
2019-01-13T04:17:06.817Z,7.69
2019-01-13T04:18:06.806Z,7.69
2019-01-13T04:19:06.835Z,7.62
2019-01-13T04:20:06.783Z,7.55
2019-01-13T04:21:06.799Z,7.69
2019-01-13T04:22:06.765Z,7.73
2019-01-13T04:23:06.762Z,7.64
2019-01-13T04:24:06.740Z,7.62
2019-01-13T04:25:06.731Z,7.62
2019-01-13T04:26:06.736Z,7.62
2019-01-13T04:27:06.708Z,7.60
2019-01-13T04:28:06.700Z,7.58
2019-01-13T04:29:06.685Z,7.62
2019-01-13T04:30:06.681Z,7.64
2019-01-13T04:31:06.688Z,7.62
2019-01-13T04:32:06.650Z,7.64
2019-01-13T04:33:06.646Z,7.68
2019-01-13T04:34:06.629Z,7.74
2019-01-13T04:35:06.617Z,7.71
2019-01-13T04:36:06.623Z,7.71
2019-01-13T04:37:06.598Z,7.73
2019-01-13T04:38:06.583Z,7.71
2019-01-13T04:39:06.576Z,7.66
2019-01-13T04:40:06.562Z,7.69
2019-01-13T04:41:06.579Z,7.73
2019-01-13T04:42:06.539Z,7.76
2019-01-13T04:43:06.534Z,7.61
2019-01-13T04:44:06.525Z,7.73
2019-01-13T04:45:06.506Z,7.68
2019-01-13T04:46:06.497Z,7.61
2019-01-13T04:47:06.502Z,7.78
2019-01-13T04:48:06.474Z,7.78
2019-01-13T04:49:06.469Z,7.80
2019-01-13T04:50:06.452Z,7.73
2019-01-13T04:51:06.462Z,7.76
2019-01-13T04:52:06.450Z,7.84
2019-01-13T04:53:06.427Z,7.73
2019-01-13T04:54:06.445Z,7.69
2019-01-13T04:55:06.397Z,7.83
2019-01-13T04:56:06.388Z,7.77
2019-01-13T04:57:06.393Z,7.74
2019-01-13T04:58:06.376Z,7.86
2019-01-13T04:59:06.355Z,7.86
2019-01-13T05:00:06.341Z,7.77
2019-01-13T05:01:06.330Z,7.74
2019-01-13T05:02:06.339Z,7.74
2019-01-13T05:03:06.308Z,7.83
2019-01-13T05:04:06.297Z,7.84
2019-01-13T05:05:06.296Z,7.73
2019-01-13T05:06:06.318Z,7.86
2019-01-13T05:07:06.299Z,7.84
2019-01-13T05:08:06.254Z,7.84
2019-01-13T05:09:06.241Z,7.69
2019-01-13T05:10:06.232Z,7.80
2019-01-13T05:11:06.228Z,7.76
2019-01-13T05:12:06.239Z,7.87
2019-01-13T05:13:06.221Z,7.83
2019-01-13T05:14:06.187Z,7.71
2019-01-13T05:15:06.177Z,7.84
2019-01-13T05:16:06.170Z,7.74
2019-01-13T05:17:06.157Z,7.74
2019-01-13T05:18:06.166Z,7.69
2019-01-13T05:19:06.132Z,7.76
2019-01-13T05:20:06.121Z,7.69
2019-01-13T05:21:06.111Z,7.81
2019-01-13T05:22:06.107Z,7.76
2019-01-13T05:23:06.106Z,7.76
2019-01-13T05:24:06.085Z,7.86
2019-01-13T05:25:06.068Z,7.86
2019-01-13T05:26:06.057Z,7.78
2019-01-13T05:27:06.043Z,7.76
2019-01-13T05:28:06.051Z,7.69
2019-01-13T05:29:06.037Z,7.68
2019-01-13T05:30:06.011Z,7.81
2019-01-13T05:31:06.000Z,7.74
2019-01-13T05:32:05.988Z,7.73
2019-01-13T05:33:06.021Z,7.86
2019-01-13T05:34:05.970Z,7.86
2019-01-13T05:35:06.000Z,7.87
2019-01-13T05:36:05.945Z,7.88
2019-01-13T05:37:05.933Z,7.91
2019-01-13T05:38:06.129Z,7.77
2019-01-13T05:39:05.913Z,7.91
2019-01-13T05:40:05.902Z,7.88
2019-01-13T05:41:05.919Z,7.91
2019-01-13T05:42:05.896Z,7.80
2019-01-13T05:43:05.868Z,7.88
2019-01-13T05:44:05.877Z,7.91
2019-01-13T05:45:05.850Z,7.86
2019-01-13T05:46:05.838Z,7.88
2019-01-13T05:47:05.824Z,7.88
2019-01-13T05:48:05.813Z,7.81
2019-01-13T05:49:05.820Z,7.78
2019-01-13T05:50:05.791Z,7.84
2019-01-13T05:51:05.784Z,7.83
2019-01-13T05:52:05.779Z,7.92
2019-01-13T05:53:05.766Z,7.91
2019-01-13T05:54:05.769Z,7.92
2019-01-13T05:55:05.739Z,7.94
2019-01-13T05:56:05.727Z,7.86
2019-01-13T05:57:05.731Z,7.86
2019-01-13T05:58:05.708Z,7.86
2019-01-13T05:59:05.713Z,7.86
2019-01-13T06:00:05.682Z,7.80
2019-01-13T06:01:05.669Z,7.91
2019-01-13T06:02:05.659Z,7.91
2019-01-13T06:03:05.657Z,7.95
2019-01-13T06:04:05.690Z,7.87
2019-01-13T06:05:05.626Z,7.91
2019-01-13T06:06:05.613Z,7.87
2019-01-13T06:07:05.604Z,7.94
2019-01-13T06:08:05.592Z,8.02
2019-01-13T06:09:05.607Z,7.94
2019-01-13T06:10:05.571Z,7.86
2019-01-13T06:11:05.561Z,7.96
2019-01-13T06:12:05.552Z,7.96
2019-01-13T06:13:05.541Z,7.98
2019-01-13T06:14:05.528Z,7.99
2019-01-13T06:15:05.592Z,7.98
2019-01-13T06:16:05.511Z,8.01
2019-01-13T06:17:05.497Z,8.05
2019-01-13T06:18:05.503Z,8.01
2019-01-13T06:19:05.477Z,8.01
2019-01-13T06:20:05.481Z,7.98
2019-01-13T06:21:05.454Z,7.99
2019-01-13T06:22:05.506Z,7.98
2019-01-13T06:23:05.431Z,7.98
2019-01-13T06:24:05.420Z,8.01
2019-01-13T06:25:05.437Z,7.98
2019-01-13T06:26:05.397Z,8.05
2019-01-13T06:27:05.388Z,8.01
2019-01-13T06:28:05.380Z,8.04
2019-01-13T06:29:05.365Z,8.06
2019-01-13T06:30:05.377Z,8.01
2019-01-13T06:31:05.342Z,7.99
2019-01-13T06:32:05.333Z,7.96
2019-01-13T06:33:05.320Z,8.02
2019-01-13T06:34:05.306Z,8.05
2019-01-13T06:35:05.295Z,7.98
2019-01-13T06:36:05.301Z,8.02
2019-01-13T06:37:05.273Z,8.06
2019-01-13T06:38:06.269Z,8.04
2019-01-13T06:39:05.250Z,8.04
2019-01-13T06:40:05.240Z,8.06
2019-01-13T06:41:05.248Z,8.09
2019-01-13T06:42:05.220Z,8.09
2019-01-13T06:43:05.206Z,8.09
2019-01-13T06:44:05.197Z,8.13
2019-01-13T06:45:05.185Z,8.16
2019-01-13T06:46:05.192Z,8.09
2019-01-13T06:47:05.163Z,8.17
2019-01-13T06:48:05.154Z,8.09
2019-01-13T06:49:05.140Z,8.02
2019-01-13T06:50:05.131Z,8.06
2019-01-13T06:51:05.197Z,8.05
2019-01-13T06:52:05.108Z,8.10
2019-01-13T06:53:05.099Z,8.04
2019-01-13T06:54:16.969Z,8.02
2019-01-13T06:55:05.076Z,8.13
2019-01-13T06:56:05.100Z,8.09
2019-01-13T06:57:05.054Z,8.10
2019-01-13T06:58:05.040Z,8.06
2019-01-13T06:59:05.038Z,8.05
2019-01-13T07:00:05.020Z,8.05
2019-01-13T07:01:05.021Z,8.06
2019-01-13T07:02:05.013Z,8.05
2019-01-13T07:03:04.985Z,8.12
2019-01-13T07:04:04.976Z,8.09
2019-01-13T07:05:04.967Z,8.02
2019-01-13T07:06:04.957Z,7.99
2019-01-13T07:07:04.959Z,8.05
2019-01-13T07:08:04.940Z,8.09
2019-01-13T07:09:04.922Z,8.09
2019-01-13T07:10:04.913Z,8.09
2019-01-13T07:11:04.900Z,8.06
2019-01-13T07:12:04.913Z,8.04
2019-01-13T07:13:58.812Z,8.04
2019-01-13T07:14:58.801Z,8.12
2019-01-13T07:15:58.785Z,8.17
2019-01-13T07:16:58.794Z,8.01
2019-01-13T07:17:58.766Z,8.09
2019-01-13T07:18:58.753Z,8.14
2019-01-13T07:19:58.752Z,8.04
2019-01-13T07:20:58.731Z,8.12
2019-01-13T07:21:58.759Z,8.10
2019-01-13T07:22:58.710Z,8.02
2019-01-13T07:23:58.700Z,8.05
2019-01-13T07:24:58.687Z,8.19
2019-01-13T07:25:58.681Z,8.10
2019-01-13T07:26:58.666Z,8.14
2019-01-13T07:27:58.670Z,8.02
2019-01-13T07:28:58.642Z,8.13
2019-01-13T07:29:58.644Z,8.20
2019-01-13T07:30:58.625Z,8.10
2019-01-13T07:31:58.612Z,8.21
2019-01-13T07:32:58.624Z,8.12
2019-01-13T07:33:58.591Z,8.05
2019-01-13T07:34:58.579Z,8.04
2019-01-13T07:36:07.411Z,8.20
2019-01-13T07:36:58.557Z,8.06
2019-01-13T07:37:58.568Z,8.13
2019-01-13T07:38:58.533Z,8.16
2019-01-13T07:39:58.521Z,8.16
2019-01-13T07:40:58.513Z,8.17
2019-01-13T07:41:58.499Z,8.10
2019-01-13T07:42:58.603Z,8.17
2019-01-13T07:43:58.478Z,8.19
2019-01-13T07:44:58.466Z,8.12
2019-01-13T07:45:58.456Z,8.19
2019-01-13T07:46:58.449Z,8.14
2019-01-13T07:47:58.434Z,8.10
2019-01-13T07:48:58.438Z,8.20
2019-01-13T07:49:58.417Z,8.16
2019-01-13T07:50:58.400Z,8.21
2019-01-13T07:52:07.506Z,8.20
2019-01-13T07:52:58.379Z,8.24
2019-01-13T07:53:58.403Z,8.26
2019-01-13T07:54:58.358Z,8.26
2019-01-13T07:55:58.346Z,8.23
2019-01-13T07:56:58.334Z,8.21
2019-01-13T07:58:07.784Z,8.23
2019-01-13T07:58:58.332Z,8.26
2019-01-13T07:59:58.305Z,8.26
2019-01-13T08:00:58.301Z,8.24
2019-01-13T08:01:58.280Z,8.31
2019-01-13T08:02:58.269Z,8.32
2019-01-13T08:03:58.275Z,8.28
2019-01-13T08:04:58.297Z,8.32
2019-01-13T08:05:58.241Z,8.35
2019-01-13T08:06:58.225Z,8.21
2019-01-13T08:08:07.295Z,8.28
2019-01-13T08:08:58.278Z,8.32
2019-01-13T08:09:58.193Z,8.32
2019-01-13T08:10:58.185Z,8.32
2019-01-13T08:11:58.179Z,8.38
2019-01-13T08:12:58.161Z,8.41
2019-01-13T08:14:06.733Z,8.34
2019-01-13T08:14:58.139Z,8.39
2019-01-13T08:15:58.129Z,8.39
2019-01-13T08:16:58.116Z,8.42
2019-01-13T08:17:58.126Z,8.42
2019-01-13T08:18:58.127Z,8.39
2019-01-13T08:19:58.101Z,8.41
2019-01-13T08:20:58.070Z,8.42
2019-01-13T08:21:58.063Z,8.41
2019-01-13T08:22:58.050Z,8.50
2019-01-13T08:23:58.038Z,8.47
2019-01-13T08:24:58.045Z,8.42
2019-01-13T08:25:58.091Z,8.44
2019-01-13T08:26:58.163Z,8.49
2019-01-13T08:27:57.994Z,8.46
2019-01-13T08:28:57.987Z,8.49
2019-01-13T08:29:58.000Z,8.53
2019-01-13T08:30:57.960Z,8.56
2019-01-13T08:31:57.950Z,8.50
2019-01-13T08:32:57.939Z,8.50
2019-01-13T08:33:57.935Z,8.56
2019-01-13T08:34:57.919Z,8.46
2019-01-13T08:35:57.925Z,8.55
2019-01-13T08:36:57.894Z,8.55
2019-01-13T08:37:57.884Z,8.57
2019-01-13T08:38:57.872Z,8.67
2019-01-13T08:39:57.863Z,8.63
2019-01-13T08:40:57.874Z,8.63
2019-01-13T08:41:57.840Z,8.67
2019-01-13T08:42:57.989Z,8.62
2019-01-13T08:43:57.824Z,8.62
2019-01-13T08:44:57.806Z,8.67
2019-01-13T08:45:57.818Z,8.70
2019-01-13T08:46:57.982Z,8.67
2019-01-13T08:47:57.776Z,8.62
2019-01-13T08:48:57.762Z,8.78
2019-01-13T08:49:57.752Z,8.60
2019-01-13T08:50:57.758Z,8.71
2019-01-13T08:51:57.729Z,8.65
2019-01-13T08:52:57.719Z,8.57
2019-01-13T08:53:57.707Z,8.74
2019-01-13T08:54:57.696Z,8.71
2019-01-13T08:55:57.703Z,8.67
2019-01-13T08:56:57.677Z,8.74
2019-01-13T08:57:57.662Z,8.70
2019-01-13T08:58:57.651Z,8.71
2019-01-13T08:59:57.640Z,8.65
2019-01-13T09:00:57.645Z,8.71
2019-01-13T09:01:57.620Z,8.85
2019-01-13T09:02:57.606Z,8.68
2019-01-13T09:03:57.597Z,8.75
2019-01-13T09:04:57.585Z,8.74
2019-01-13T09:05:57.590Z,8.75
2019-01-13T09:06:57.562Z,8.80
2019-01-13T09:07:57.553Z,8.70
2019-01-13T09:08:57.541Z,8.68
2019-01-13T09:09:57.530Z,8.70
2019-01-13T09:10:57.548Z,8.74
2019-01-13T09:11:57.507Z,8.70
2019-01-13T09:12:57.498Z,8.68
2019-01-13T09:13:57.485Z,8.71
2019-01-13T09:14:57.482Z,8.68
2019-01-13T09:15:57.463Z,8.70
2019-01-13T09:16:57.470Z,8.68
2019-01-13T09:17:57.447Z,8.74
2019-01-13T09:18:57.437Z,8.72
2019-01-13T09:19:57.422Z,8.74
2019-01-13T09:20:57.408Z,8.77
2019-01-13T09:21:57.417Z,8.71
2019-01-13T09:22:57.390Z,8.74
2019-01-13T09:23:57.376Z,8.83
2019-01-13T09:24:57.366Z,8.83
2019-01-13T09:25:57.354Z,8.81
2019-01-13T09:26:57.360Z,8.78
2019-01-13T09:27:57.332Z,8.83
2019-01-13T09:28:57.322Z,8.83
2019-01-13T09:29:57.313Z,8.85
2019-01-13T09:30:57.305Z,8.83
2019-01-13T09:31:57.318Z,8.81
2019-01-13T09:32:57.276Z,8.83
2019-01-13T09:33:57.265Z,8.86
2019-01-13T09:34:57.256Z,8.81
2019-01-13T09:35:57.244Z,8.81
2019-01-13T09:36:57.252Z,8.85
2019-01-13T09:37:57.222Z,8.81
2019-01-13T09:38:57.244Z,8.83
2019-01-13T09:39:57.255Z,8.83
2019-01-13T09:40:57.189Z,8.89
2019-01-13T09:41:57.202Z,8.90
2019-01-13T09:42:57.178Z,8.81
2019-01-13T09:43:57.155Z,8.90
2019-01-13T09:44:57.143Z,8.85
2019-01-13T09:45:57.133Z,8.85
2019-01-13T09:46:57.139Z,8.83
2019-01-13T09:47:57.113Z,8.90
2019-01-13T09:48:57.104Z,8.83
2019-01-13T09:49:57.090Z,8.88
2019-01-13T09:50:57.079Z,8.92
2019-01-13T09:51:57.095Z,8.92
2019-01-13T09:52:57.055Z,8.95
2019-01-13T09:53:57.047Z,8.95
2019-01-13T09:54:57.037Z,8.92
2019-01-13T09:55:57.022Z,9.01
2019-01-13T09:56:57.016Z,8.80
2019-01-13T09:57:57.017Z,8.83
2019-01-13T09:58:56.990Z,8.88
2019-01-13T09:59:56.986Z,8.92
2019-01-13T10:00:56.968Z,8.83
2019-01-13T10:01:56.966Z,8.99
2019-01-13T10:02:56.963Z,8.81
2019-01-13T10:03:56.972Z,8.89
2019-01-13T10:04:56.924Z,8.95
2019-01-13T10:05:56.913Z,8.86
2019-01-13T10:06:56.901Z,8.99
2019-01-13T10:07:56.911Z,8.96
2019-01-13T10:08:56.882Z,8.96
2019-01-13T10:09:56.870Z,8.89
2019-01-13T10:10:56.858Z,8.99
2019-01-13T10:11:56.849Z,8.96
2019-01-13T10:12:56.851Z,9.03
2019-01-13T10:13:56.827Z,9.01
2019-01-13T10:15:05.281Z,8.96
2019-01-13T10:15:56.803Z,8.98
2019-01-13T10:16:56.791Z,8.99
2019-01-13T10:17:56.883Z,8.98
2019-01-13T10:19:05.534Z,8.90
2019-01-13T10:19:56.815Z,8.92
2019-01-13T10:20:56.754Z,8.89
2019-01-13T10:21:56.736Z,8.93
2019-01-13T10:22:56.746Z,8.89
2019-01-13T10:23:56.717Z,9.03
2019-01-13T10:24:56.703Z,9.01
2019-01-13T10:25:56.691Z,8.98
2019-01-13T10:26:56.683Z,8.89
2019-01-13T10:27:56.686Z,8.90
2019-01-13T10:28:56.663Z,8.93
2019-01-13T10:29:56.648Z,8.93
2019-01-13T10:31:03.017Z,8.99
2019-01-13T10:31:56.628Z,8.89
2019-01-13T10:32:56.636Z,9.06
2019-01-13T10:33:56.603Z,9.01
2019-01-13T10:34:56.593Z,8.88
2019-01-13T10:35:56.583Z,9.01
2019-01-13T10:36:56.578Z,8.95
2019-01-13T10:37:56.580Z,9.03
2019-01-13T10:38:56.548Z,8.92
2019-01-13T10:39:56.537Z,8.95
2019-01-13T10:40:56.527Z,8.92
2019-01-13T10:41:56.515Z,8.98
2019-01-13T10:42:56.552Z,8.88
2019-01-13T10:43:56.524Z,8.90
2019-01-13T10:44:56.482Z,8.92
2019-01-13T10:45:56.474Z,9.01
2019-01-13T10:46:56.461Z,9.01
2019-01-13T10:47:56.463Z,8.99
2019-01-13T10:48:56.462Z,9.01
2019-01-13T10:49:56.426Z,8.89
2019-01-13T10:50:56.416Z,8.96
2019-01-13T10:51:56.405Z,8.95
2019-01-13T10:52:56.397Z,8.95
2019-01-13T10:53:56.441Z,8.99
2019-01-13T10:54:56.371Z,8.99
2019-01-13T10:55:56.365Z,9.06
2019-01-13T10:56:56.351Z,8.90
2019-01-13T10:57:56.342Z,8.85
2019-01-13T10:58:56.344Z,9.01
2019-01-13T10:59:56.358Z,8.99
2019-01-13T11:00:56.309Z,8.99
2019-01-13T11:01:56.298Z,9.04
2019-01-13T11:03:02.009Z,9.06
2019-01-13T11:03:56.292Z,9.01
2019-01-13T11:04:56.264Z,9.01
2019-01-13T11:05:56.251Z,8.99
2019-01-13T11:06:56.241Z,8.98
2019-01-13T11:07:56.229Z,9.04
2019-01-13T11:08:56.258Z,8.95
2019-01-13T11:09:56.207Z,8.99
2019-01-13T11:10:56.197Z,9.06
2019-01-13T11:11:56.187Z,8.96
2019-01-13T11:12:56.173Z,8.98
2019-01-13T11:13:56.184Z,9.01
2019-01-13T11:14:56.151Z,9.04
2019-01-13T11:15:56.141Z,9.01
2019-01-13T11:16:56.134Z,9.03
2019-01-13T11:17:56.131Z,8.99
2019-01-13T11:18:57.442Z,8.99
2019-01-13T11:19:56.097Z,9.01
2019-01-13T11:20:56.088Z,8.99
2019-01-13T11:21:56.078Z,9.03
2019-01-13T11:22:56.064Z,8.98
2019-01-13T11:23:56.076Z,8.95
2019-01-13T11:24:56.041Z,9.01
2019-01-13T11:25:56.035Z,8.99
2019-01-13T11:26:56.020Z,8.99
2019-01-13T11:27:56.012Z,9.01
2019-01-13T11:28:56.015Z,8.99
2019-01-13T11:29:55.988Z,9.03
2019-01-13T11:30:55.984Z,9.03
2019-01-13T11:31:55.966Z,9.03
2019-01-13T11:32:55.955Z,9.03
2019-01-13T11:33:55.962Z,9.03
2019-01-13T11:34:55.932Z,9.04
2019-01-13T11:35:55.923Z,9.06
2019-01-13T11:36:55.908Z,9.01
2019-01-13T11:37:55.953Z,9.03
2019-01-13T11:38:55.944Z,9.03
2019-01-13T11:39:55.877Z,9.01
2019-01-13T11:40:55.866Z,8.96
2019-01-13T11:41:55.855Z,9.11
2019-01-13T11:42:55.849Z,9.01
2019-01-13T11:43:55.833Z,9.15
2019-01-13T11:44:55.837Z,9.08
2019-01-13T11:45:55.810Z,9.06
2019-01-13T11:46:55.801Z,9.09
2019-01-13T11:47:55.787Z,9.04
2019-01-13T11:48:55.779Z,9.18
2019-01-13T11:49:55.781Z,9.16
2019-01-13T11:50:55.755Z,9.12
2019-01-13T11:52:04.110Z,9.15
2019-01-13T11:52:55.732Z,9.12
2019-01-13T11:54:04.561Z,9.06
2019-01-13T11:54:55.711Z,9.09
2019-01-13T11:55:55.701Z,9.09
2019-01-13T11:56:55.691Z,9.12
2019-01-13T11:57:55.680Z,9.11
2019-01-13T11:58:55.672Z,9.11
2019-01-13T11:59:55.678Z,9.11
2019-01-13T12:00:55.643Z,9.12
2019-01-13T12:01:55.632Z,9.03
2019-01-13T12:02:55.627Z,9.11
2019-01-13T12:03:55.616Z,9.03
2019-01-13T12:04:55.618Z,8.95
2019-01-13T12:05:55.591Z,9.01
2019-01-13T12:06:55.580Z,9.08
2019-01-13T12:07:55.573Z,9.01
2019-01-13T12:08:55.560Z,9.04
2019-01-13T12:10:03.982Z,8.99
2019-01-13T12:10:55.538Z,9.04
2019-01-13T12:11:55.708Z,9.04
2019-01-13T12:12:55.608Z,8.96
2019-01-13T12:13:55.502Z,8.99
2019-01-13T12:14:55.515Z,9.03
2019-01-13T12:15:55.486Z,9.06
2019-01-13T12:16:55.469Z,9.09
2019-01-13T12:17:55.460Z,9.11
2019-01-13T12:18:55.510Z,9.11
2019-01-13T12:19:55.453Z,9.14
2019-01-13T12:20:55.433Z,9.16
2019-01-13T12:21:56.056Z,9.09
2019-01-13T12:22:55.415Z,9.12
2019-01-13T12:23:55.768Z,9.11
2019-01-13T12:25:04.547Z,9.06
2019-01-13T12:25:55.380Z,9.03
2019-01-13T12:26:55.364Z,9.08
2019-01-13T12:27:55.346Z,9.06
2019-01-13T12:28:55.340Z,9.08
2019-01-13T12:29:55.342Z,9.11
2019-01-13T12:30:55.314Z,9.09
2019-01-13T12:31:55.306Z,9.06
2019-01-13T12:32:55.291Z,9.06
2019-01-13T12:33:55.280Z,9.11
2019-01-13T12:34:55.300Z,9.06
2019-01-13T12:35:55.259Z,9.08
2019-01-13T12:36:55.249Z,9.09
2019-01-13T12:37:55.238Z,9.09
2019-01-13T12:38:55.230Z,9.14
2019-01-13T12:39:55.213Z,9.12
2019-01-13T12:40:55.250Z,9.18
2019-01-13T12:41:55.196Z,9.09
2019-01-13T12:42:55.183Z,9.06
2019-01-13T12:43:55.170Z,9.14
2019-01-13T12:44:55.160Z,9.14
2019-01-13T12:45:55.168Z,9.16
2019-01-13T12:46:55.136Z,9.12
2019-01-13T12:47:55.126Z,9.11
2019-01-13T12:48:55.118Z,9.11
2019-01-13T12:49:55.105Z,9.16
2019-01-13T12:50:55.114Z,9.04
2019-01-13T12:51:55.081Z,9.03
2019-01-13T12:52:55.079Z,9.14
2019-01-13T12:53:55.063Z,9.09
2019-01-13T12:54:55.051Z,9.12
2019-01-13T12:55:55.063Z,9.15
2019-01-13T12:56:55.032Z,9.15
2019-01-13T12:57:55.035Z,9.22
2019-01-13T12:58:55.005Z,9.15
2019-01-13T12:59:54.997Z,9.16
2019-01-13T13:00:55.008Z,9.22
2019-01-13T13:01:54.977Z,9.23
2019-01-13T13:02:54.960Z,9.16
2019-01-13T13:03:54.949Z,9.22
2019-01-13T13:04:54.940Z,9.19
2019-01-13T13:06:05.039Z,9.14
2019-01-13T13:07:03.273Z,9.23
2019-01-13T13:07:54.909Z,9.29
2019-01-13T13:08:54.895Z,9.24
2019-01-13T13:09:54.884Z,9.23
2019-01-13T13:10:54.894Z,9.24
2019-01-13T13:11:54.863Z,9.18
2019-01-13T13:12:54.849Z,9.23
2019-01-13T13:13:54.842Z,9.23
2019-01-13T13:14:54.834Z,9.15
2019-01-13T13:15:54.833Z,9.16
2019-01-13T13:16:54.806Z,9.14
2019-01-13T13:17:54.795Z,9.14
2019-01-13T13:18:54.791Z,9.19